Terminal Aerodrome Forecast
Issued by NWS

Home | Current Version | Previous Version | Text Only | Print | Product List | Glossary On
Versions: 1 2 3 4 5 6 7 8 9 10 11 12 13 14 15
000
FTAK31 PANC 180528
TAFADU
TAF
PADU 180528Z 1806/1906 18015G28KT P6SM BKN070
     FM181200 18021G38KT P6SM BKN040
     FM181600 18025G40KT 6SM -RA BKN015 OVC025
      TEMPO 1818/1821 2SM BR SCT008 OVC015
     FM182100 18030G45KT 5SM -RA BR BKN008 OVC015
     FM190300 24020G25KT P6SM -RASN SCT015 BKN025=

USA.gov is the U.S. government's official web portal to all federal, state and local government web resources and services.